sensor_id;sensor_type;location;lat;lon;timestamp;temperature;humidity
77277;DHT22;66330;52.166;9.978;2023-01-24T00:00:25;3.80;79.60
77277;DHT22;66330;52.166;9.978;2023-01-24T00:02:50;3.80;79.50
77277;DHT22;66330;52.166;9.978;2023-01-24T00:05:16;3.80;79.50
77277;DHT22;66330;52.166;9.978;2023-01-24T00:07:41;3.80;79.50
77277;DHT22;66330;52.166;9.978;2023-01-24T00:10:08;4.00;79.60
77277;DHT22;66330;52.166;9.978;2023-01-24T00:12:33;3.80;79.50
77277;DHT22;66330;52.166;9.978;2023-01-24T00:14:59;3.80;79.60
77277;DHT22;66330;52.166;9.978;2023-01-24T00:17:24;3.80;80.30
77277;DHT22;66330;52.166;9.978;2023-01-24T00:19:50;3.90;79.60
77277;DHT22;66330;52.166;9.978;2023-01-24T00:22:16;3.70;79.40
77277;DHT22;66330;52.166;9.978;2023-01-24T00:24:41;3.70;79.40
77277;DHT22;66330;52.166;9.978;2023-01-24T00:27:07;3.70;79.40
77277;DHT22;66330;52.166;9.978;2023-01-24T00:29:32;3.80;79.60
77277;DHT22;66330;52.166;9.978;2023-01-24T00:31:58;3.90;79.80
77277;DHT22;66330;52.166;9.978;2023-01-24T00:34:23;3.70;78.40
77277;DHT22;66330;52.166;9.978;2023-01-24T00:36:49;4.00;79.80
77277;DHT22;66330;52.166;9.978;2023-01-24T00:39:14;3.70;79.60
77277;DHT22;66330;52.166;9.978;2023-01-24T00:41:40;3.70;79.60
77277;DHT22;66330;52.166;9.978;2023-01-24T00:44:06;3.70;79.60
77277;DHT22;66330;52.166;9.978;2023-01-24T00:46:31;3.90;79.80
77277;DHT22;66330;52.166;9.978;2023-01-24T00:48:57;3.70;79.50
77277;DHT22;66330;52.166;9.978;2023-01-24T00:51:23;3.70;79.50
77277;DHT22;66330;52.166;9.978;2023-01-24T00:53:49;3.70;79.60
77277;DHT22;66330;52.166;9.978;2023-01-24T00:56:15;3.70;79.60
77277;DHT22;66330;52.166;9.978;2023-01-24T00:58:40;3.70;79.50
77277;DHT22;66330;52.166;9.978;2023-01-24T01:01:06;3.80;78.50
77277;DHT22;66330;52.166;9.978;2023-01-24T01:03:32;3.70;79.40
77277;DHT22;66330;52.166;9.978;2023-01-24T01:06:06;3.70;79.40
77277;DHT22;66330;52.166;9.978;2023-01-24T01:08:32;3.70;79.40
77277;DHT22;66330;52.166;9.978;2023-01-24T01:10:58;3.70;79.40
77277;DHT22;66330;52.166;9.978;2023-01-24T01:13:25;3.70;79.40
77277;DHT22;66330;52.166;9.978;2023-01-24T01:15:51;3.80;79.60
77277;DHT22;66330;52.166;9.978;2023-01-24T01:18:16;3.80;79.50
77277;DHT22;66330;52.166;9.978;2023-01-24T01:20:48;3.90;79.60
77277;DHT22;66330;52.166;9.978;2023-01-24T01:23:13;3.80;79.40
77277;DHT22;66330;52.166;9.978;2023-01-24T01:25:39;3.80;79.30
77277;DHT22;66330;52.166;9.978;2023-01-24T01:28:04;3.80;79.30
77277;DHT22;66330;52.166;9.978;2023-01-24T01:30:30;3.80;79.30
77277;DHT22;66330;52.166;9.978;2023-01-24T01:32:55;3.90;78.30
77277;DHT22;66330;52.166;9.978;2023-01-24T01:35:21;4.20;79.70
77277;DHT22;66330;52.166;9.978;2023-01-24T01:37:47;3.80;79.30
77277;DHT22;66330;52.166;9.978;2023-01-24T01:40:12;3.80;79.30
77277;DHT22;66330;52.166;9.978;2023-01-24T01:45:34;4.00;79.50
77277;DHT22;66330;52.166;9.978;2023-01-24T01:48:04;3.80;79.10
77277;DHT22;66330;52.166;9.978;2023-01-24T01:50:34;3.80;79.10
77277;DHT22;66330;52.166;9.978;2023-01-24T01:53:03;3.80;79.10
77277;DHT22;66330;52.166;9.978;2023-01-24T01:55:33;4.00;79.30
77277;DHT22;66330;52.166;9.978;2023-01-24T01:58:03;3.90;79.20
77277;DHT22;66330;52.166;9.978;2023-01-24T02:00:28;3.90;79.00
77277;DHT22;66330;52.166;9.978;2023-01-24T02:03:04;3.90;79.00
77277;DHT22;66330;52.166;9.978;2023-01-24T02:05:50;4.10;79.20
77277;DHT22;66330;52.166;9.978;2023-01-24T02:08:20;3.80;78.80
77277;DHT22;66330;52.166;9.978;2023-01-24T02:10:46;3.80;78.80
77277;DHT22;66330;52.166;9.978;2023-01-24T02:13:31;3.80;78.90
77277;DHT22;66330;52.166;9.978;2023-01-24T02:15:57;3.80;78.90
77277;DHT22;66330;52.166;9.978;2023-01-24T02:18:36;3.80;78.90
77277;DHT22;66330;52.166;9.978;2023-01-24T02:21:14;3.70;78.80
77277;DHT22;66330;52.166;9.978;2023-01-24T02:26:24;3.70;78.90
77277;DHT22;66330;52.166;9.978;2023-01-24T02:29:09;3.70;79.00
77277;DHT22;66330;52.166;9.978;2023-01-24T02:31:57;3.70;79.00
77277;DHT22;66330;52.166;9.978;2023-01-24T02:34:24;3.80;79.10
77277;DHT22;66330;52.166;9.978;2023-01-24T02:36:57;3.70;79.00
77277;DHT22;66330;52.166;9.978;2023-01-24T02:39:29;3.80;79.10
77277;DHT22;66330;52.166;9.978;2023-01-24T02:42:08;3.70;78.90
77277;DHT22;66330;52.166;9.978;2023-01-24T02:45:00;3.90;79.10
77277;DHT22;66330;52.166;9.978;2023-01-24T02:47:30;3.70;78.90
77277;DHT22;66330;52.166;9.978;2023-01-24T02:50:02;3.80;79.00
77277;DHT22;66330;52.166;9.978;2023-01-24T02:52:28;3.90;79.00
77277;DHT22;66330;52.166;9.978;2023-01-24T02:55:13;3.80;78.90
77277;DHT22;66330;52.166;9.978;2023-01-24T02:57:39;3.70;78.70
77277;DHT22;66330;52.166;9.978;2023-01-24T03:00:23;3.90;78.90
77277;DHT22;66330;52.166;9.978;2023-01-24T03:02:48;3.70;78.70
77277;DHT22;66330;52.166;9.978;2023-01-24T03:05:14;3.70;78.60
77277;DHT22;66330;52.166;9.978;2023-01-24T03:07:40;3.70;78.60
77277;DHT22;66330;52.166;9.978;2023-01-24T03:10:17;3.90;78.80
77277;DHT22;66330;52.166;9.978;2023-01-24T03:12:44;3.70;78.50
77277;DHT22;66330;52.166;9.978;2023-01-24T03:15:28;3.70;78.40
77277;DHT22;66330;52.166;9.978;2023-01-24T03:18:13;3.80;79.30
77277;DHT22;66330;52.166;9.978;2023-01-24T03:20:57;3.70;78.40
77277;DHT22;66330;52.166;9.978;2023-01-24T03:23:42;3.60;78.40
77277;DHT22;66330;52.166;9.978;2023-01-24T03:26:26;3.60;78.40
77277;DHT22;66330;52.166;9.978;2023-01-24T03:29:11;3.60;78.40
77277;DHT22;66330;52.166;9.978;2023-01-24T03:31:55;3.60;78.40
77277;DHT22;66330;52.166;9.978;2023-01-24T03:34:39;3.60;78.50
77277;DHT22;66330;52.166;9.978;2023-01-24T03:37:18;3.60;78.50
77277;DHT22;66330;52.166;9.978;2023-01-24T03:40:07;3.60;78.50
77277;DHT22;66330;52.166;9.978;2023-01-24T03:42:34;4.20;79.00
77277;DHT22;66330;52.166;9.978;2023-01-24T03:45:02;3.60;78.40
77277;DHT22;66330;52.166;9.978;2023-01-24T03:47:28;3.90;78.80
77277;DHT22;66330;52.166;9.978;2023-01-24T03:49:53;3.60;78.40
77277;DHT22;66330;52.166;9.978;2023-01-24T03:52:38;3.70;78.40
77277;DHT22;66330;52.166;9.978;2023-01-24T03:55:04;3.60;78.30
77277;DHT22;66330;52.166;9.978;2023-01-24T03:57:29;4.00;78.60
77277;DHT22;66330;52.166;9.978;2023-01-24T03:59:55;3.60;78.10
77277;DHT22;66330;52.166;9.978;2023-01-24T04:02:22;4.10;78.60
77277;DHT22;66330;52.166;9.978;2023-01-24T04:04:48;3.60;78.10
77277;DHT22;66330;52.166;9.978;2023-01-24T04:07:32;3.60;78.00
77277;DHT22;66330;52.166;9.978;2023-01-24T04:09:58;3.60;78.00
77277;DHT22;66330;52.166;9.978;2023-01-24T04:12:24;3.60;77.90
77277;DHT22;66330;52.166;9.978;2023-01-24T04:14:50;3.60;77.90
77277;DHT22;66330;52.166;9.978;2023-01-24T04:17:15;3.60;78.00
77277;DHT22;66330;52.166;9.978;2023-01-24T04:19:41;3.60;78.00
77277;DHT22;66330;52.166;9.978;2023-01-24T04:22:07;3.80;78.20
77277;DHT22;66330;52.166;9.978;2023-01-24T04:24:32;3.60;77.30
77277;DHT22;66330;52.166;9.978;2023-01-24T04:26:58;3.50;77.80
77277;DHT22;66330;52.166;9.978;2023-01-24T04:29:23;3.80;78.20
77277;DHT22;66330;52.166;9.978;2023-01-24T04:31:49;3.70;78.00
77277;DHT22;66330;52.166;9.978;2023-01-24T04:34:14;4.20;78.50
77277;DHT22;66330;52.166;9.978;2023-01-24T04:36:40;3.60;77.70
77277;DHT22;66330;52.166;9.978;2023-01-24T04:39:06;3.60;77.70
77277;DHT22;66330;52.166;9.978;2023-01-24T04:41:31;3.60;77.70
77277;DHT22;66330;52.166;9.978;2023-01-24T04:43:57;3.70;77.80
77277;DHT22;66330;52.166;9.978;2023-01-24T04:46:22;3.60;77.60
77277;DHT22;66330;52.166;9.978;2023-01-24T04:48:48;4.20;78.30
77277;DHT22;66330;52.166;9.978;2023-01-24T04:51:13;3.60;77.60
77277;DHT22;66330;52.166;9.978;2023-01-24T04:53:40;3.60;77.60
77277;DHT22;66330;52.166;9.978;2023-01-24T04:56:06;3.90;77.80
77277;DHT22;66330;52.166;9.978;2023-01-24T04:58:33;3.60;77.40
77277;DHT22;66330;52.166;9.978;2023-01-24T05:00:59;3.70;77.40
77277;DHT22;66330;52.166;9.978;2023-01-24T05:03:24;4.00;77.70
77277;DHT22;66330;52.166;9.978;2023-01-24T05:05:51;3.70;77.30
77277;DHT22;66330;52.166;9.978;2023-01-24T05:08:17;3.70;77.20
77277;DHT22;66330;52.166;9.978;2023-01-24T05:10:42;3.70;77.10
77277;DHT22;66330;52.166;9.978;2023-01-24T05:13:08;3.70;77.10
77277;DHT22;66330;52.166;9.978;2023-01-24T05:15:34;3.70;77.10
77277;DHT22;66330;52.166;9.978;2023-01-24T05:17:59;3.70;77.00
77277;DHT22;66330;52.166;9.978;2023-01-24T05:20:25;3.70;76.90
77277;DHT22;66330;52.166;9.978;2023-01-24T05:22:50;3.70;76.70
77277;DHT22;66330;52.166;9.978;2023-01-24T05:25:16;4.00;76.90
77277;DHT22;66330;52.166;9.978;2023-01-24T05:27:43;3.80;76.60
77277;DHT22;66330;52.166;9.978;2023-01-24T05:30:10;3.80;77.30
77277;DHT22;66330;52.166;9.978;2023-01-24T05:32:37;3.80;76.60
77277;DHT22;66330;52.166;9.978;2023-01-24T05:35:03;3.60;76.40
77277;DHT22;66330;52.166;9.978;2023-01-24T05:37:29;3.80;76.50
77277;DHT22;66330;52.166;9.978;2023-01-24T05:39:55;3.80;76.40
77277;DHT22;66330;52.166;9.978;2023-01-24T05:42:20;4.00;76.50
77277;DHT22;66330;52.166;9.978;2023-01-24T05:44:46;3.80;76.20
77277;DHT22;66330;52.166;9.978;2023-01-24T05:47:11;3.90;76.20
77277;DHT22;66330;52.166;9.978;2023-01-24T05:49:37;4.20;76.40
77277;DHT22;66330;52.166;9.978;2023-01-24T05:52:02;4.20;76.20
77277;DHT22;66330;52.166;9.978;2023-01-24T05:54:28;3.90;75.80
77277;DHT22;66330;52.166;9.978;2023-01-24T05:56:54;3.90;75.60
77277;DHT22;66330;52.166;9.978;2023-01-24T05:59:19;3.90;75.60
77277;DHT22;66330;52.166;9.978;2023-01-24T06:01:45;3.90;75.50
77277;DHT22;66330;52.166;9.978;2023-01-24T06:04:11;4.00;75.40
77277;DHT22;66330;52.166;9.978;2023-01-24T06:06:36;3.90;75.00
77277;DHT22;66330;52.166;9.978;2023-01-24T06:09:02;3.90;75.00
77277;DHT22;66330;52.166;9.978;2023-01-24T06:11:28;3.90;75.00
77277;DHT22;66330;52.166;9.978;2023-01-24T06:13:55;3.80;74.80
77277;DHT22;66330;52.166;9.978;2023-01-24T06:16:23;4.40;75.10
77277;DHT22;66330;52.166;9.978;2023-01-24T06:18:50;3.80;74.80
77277;DHT22;66330;52.166;9.978;2023-01-24T06:24:01;4.00;75.00
77277;DHT22;66330;52.166;9.978;2023-01-24T06:26:27;3.80;74.70
77277;DHT22;66330;52.166;9.978;2023-01-24T06:28:53;3.80;74.60
77277;DHT22;66330;52.166;9.978;2023-01-24T06:31:38;3.80;74.50
77277;DHT22;66330;52.166;9.978;2023-01-24T06:34:21;3.80;74.60
77277;DHT22;66330;52.166;9.978;2023-01-24T06:37:12;3.80;74.60
77277;DHT22;66330;52.166;9.978;2023-01-24T06:39:39;4.00;74.70
77277;DHT22;66330;52.166;9.978;2023-01-24T06:42:05;3.70;74.20
77277;DHT22;66330;52.166;9.978;2023-01-24T06:44:31;3.70;74.10
77277;DHT22;66330;52.166;9.978;2023-01-24T06:46:57;4.20;74.60
77277;DHT22;66330;52.166;9.978;2023-01-24T06:49:22;4.00;74.40
77277;DHT22;66330;52.166;9.978;2023-01-24T06:51:51;4.00;74.30
77277;DHT22;66330;52.166;9.978;2023-01-24T06:54:17;3.70;73.90
77277;DHT22;66330;52.166;9.978;2023-01-24T06:56:43;3.80;74.00
77277;DHT22;66330;52.166;9.978;2023-01-24T06:59:08;3.70;73.80
77277;DHT22;66330;52.166;9.978;2023-01-24T07:01:34;3.70;73.80
77277;DHT22;66330;52.166;9.978;2023-01-24T07:04:00;3.70;73.80
77277;DHT22;66330;52.166;9.978;2023-01-24T07:06:25;3.80;74.00
77277;DHT22;66330;52.166;9.978;2023-01-24T07:08:52;3.70;72.80
77277;DHT22;66330;52.166;9.978;2023-01-24T07:11:18;3.70;74.00
77277;DHT22;66330;52.166;9.978;2023-01-24T07:13:43;3.70;74.20
77277;DHT22;66330;52.166;9.978;2023-01-24T07:16:09;3.70;73.30
77277;DHT22;66330;52.166;9.978;2023-01-24T07:18:35;4.00;74.60
77277;DHT22;66330;52.166;9.978;2023-01-24T07:21:05;4.40;74.80
77277;DHT22;66330;52.166;9.978;2023-01-24T07:23:31;3.80;74.00
77277;DHT22;66330;52.166;9.978;2023-01-24T07:25:58;3.80;73.90
77277;DHT22;66330;52.166;9.978;2023-01-24T07:28:24;4.00;74.30
77277;DHT22;66330;52.166;9.978;2023-01-24T07:30:52;3.80;73.90
77277;DHT22;66330;52.166;9.978;2023-01-24T07:33:17;3.70;73.80
77277;DHT22;66330;52.166;9.978;2023-01-24T07:35:43;3.70;73.70
77277;DHT22;66330;52.166;9.978;2023-01-24T07:38:09;3.70;73.70
77277;DHT22;66330;52.166;9.978;2023-01-24T07:40:37;3.90;73.90
77277;DHT22;66330;52.166;9.978;2023-01-24T07:43:03;3.90;74.00
77277;DHT22;66330;52.166;9.978;2023-01-24T07:45:29;3.70;73.80
77277;DHT22;66330;52.166;9.978;2023-01-24T07:47:59;3.70;73.90
77277;DHT22;66330;52.166;9.978;2023-01-24T07:50:26;3.70;73.80
77277;DHT22;66330;52.166;9.978;2023-01-24T07:52:53;3.70;73.80
77277;DHT22;66330;52.166;9.978;2023-01-24T07:55:19;3.60;73.70
77277;DHT22;66330;52.166;9.978;2023-01-24T07:57:45;3.70;73.70
77277;DHT22;66330;52.166;9.978;2023-01-24T08:00:11;3.70;73.70
77277;DHT22;66330;52.166;9.978;2023-01-24T08:02:37;3.70;73.30
77277;DHT22;66330;52.166;9.978;2023-01-24T08:05:03;4.10;73.80
77277;DHT22;66330;52.166;9.978;2023-01-24T08:07:28;3.90;73.50
77277;DHT22;66330;52.166;9.978;2023-01-24T08:09:54;3.70;73.60
77277;DHT22;66330;52.166;9.978;2023-01-24T08:12:20;4.00;73.90
77277;DHT22;66330;52.166;9.978;2023-01-24T08:14:45;3.60;73.50
77277;DHT22;66330;52.166;9.978;2023-01-24T08:17:11;3.80;73.70
77277;DHT22;66330;52.166;9.978;2023-01-24T08:19:37;3.80;73.50
77277;DHT22;66330;52.166;9.978;2023-01-24T08:22:05;3.80;73.50
77277;DHT22;66330;52.166;9.978;2023-01-24T08:24:31;3.80;74.00
77277;DHT22;66330;52.166;9.978;2023-01-24T08:26:56;3.80;73.20
77277;DHT22;66330;52.166;9.978;2023-01-24T08:29:22;3.90;73.30
77277;DHT22;66330;52.166;9.978;2023-01-24T08:31:47;3.90;73.50
77277;DHT22;66330;52.166;9.978;2023-01-24T08:34:14;3.90;73.10
77277;DHT22;66330;52.166;9.978;2023-01-24T08:36:39;3.90;73.00
77277;DHT22;66330;52.166;9.978;2023-01-24T08:39:05;3.90;73.00
77277;DHT22;66330;52.166;9.978;2023-01-24T08:41:31;3.80;72.90
77277;DHT22;66330;52.166;9.978;2023-01-24T08:43:56;3.90;73.00
77277;DHT22;66330;52.166;9.978;2023-01-24T08:46:22;3.90;73.00
77277;DHT22;66330;52.166;9.978;2023-01-24T08:48:47;3.90;72.90
77277;DHT22;66330;52.166;9.978;2023-01-24T08:51:13;4.10;73.10
77277;DHT22;66330;52.166;9.978;2023-01-24T08:53:39;4.00;72.80
77277;DHT22;66330;52.166;9.978;2023-01-24T08:56:05;4.60;73.40
77277;DHT22;66330;52.166;9.978;2023-01-24T08:58:32;3.90;72.50
77277;DHT22;66330;52.166;9.978;2023-01-24T09:01:08;4.10;72.70
77277;DHT22;66330;52.166;9.978;2023-01-24T09:03:34;4.10;72.60
77277;DHT22;66330;52.166;9.978;2023-01-24T09:06:00;4.10;72.40
77277;DHT22;66330;52.166;9.978;2023-01-24T09:08:25;4.20;72.60
77277;DHT22;66330;52.166;9.978;2023-01-24T09:10:51;4.20;72.50
77277;DHT22;66330;52.166;9.978;2023-01-24T09:13:17;4.20;72.40
77277;DHT22;66330;52.166;9.978;2023-01-24T09:15:43;4.20;72.30
77277;DHT22;66330;52.166;9.978;2023-01-24T09:18:09;4.30;72.40
77277;DHT22;66330;52.166;9.978;2023-01-24T09:20:34;4.30;72.20
77277;DHT22;66330;52.166;9.978;2023-01-24T09:23:07;4.30;72.00
77277;DHT22;66330;52.166;9.978;2023-01-24T09:25:33;4.30;72.00
77277;DHT22;66330;52.166;9.978;2023-01-24T09:27:59;4.90;72.90
77277;DHT22;66330;52.166;9.978;2023-01-24T09:30:24;4.40;71.80
77277;DHT22;66330;52.166;9.978;2023-01-24T09:32:50;4.40;72.00
77277;DHT22;66330;52.166;9.978;2023-01-24T09:35:16;4.40;71.70
77277;DHT22;66330;52.166;9.978;2023-01-24T09:37:41;4.40;71.10
77277;DHT22;66330;52.166;9.978;2023-01-24T09:40:19;4.40;71.50
77277;DHT22;66330;52.166;9.978;2023-01-24T09:45:52;4.50;71.40
77277;DHT22;66330;52.166;9.978;2023-01-24T09:48:15;5.10;72.00
77277;DHT22;66330;52.166;9.978;2023-01-24T09:50:46;4.20;71.10
77277;DHT22;66330;52.166;9.978;2023-01-24T09:53:26;4.60;71.50
77277;DHT22;66330;52.166;9.978;2023-01-24T09:55:54;4.60;71.50
77277;DHT22;66330;52.166;9.978;2023-01-24T09:58:32;4.60;71.30
77277;DHT22;66330;52.166;9.978;2023-01-24T10:01:04;4.60;71.20
77277;DHT22;66330;52.166;9.978;2023-01-24T10:03:33;4.60;71.20
77277;DHT22;66330;52.166;9.978;2023-01-24T10:06:06;4.60;71.20
77277;DHT22;66330;52.166;9.978;2023-01-24T10:17:08;4.80;71.30
77277;DHT22;66330;52.166;9.978;2023-01-24T10:25:11;5.50;71.60
77277;DHT22;66330;52.166;9.978;2023-01-24T10:27:49;4.90;70.70
77277;DHT22;66330;52.166;9.978;2023-01-24T10:30:18;4.90;70.50
77277;DHT22;66330;52.166;9.978;2023-01-24T10:32:46;4.80;70.40
77277;DHT22;66330;52.166;9.978;2023-01-24T10:35:22;4.70;70.20
77277;DHT22;66330;52.166;9.978;2023-01-24T10:37:53;4.80;70.30
77277;DHT22;66330;52.166;9.978;2023-01-24T10:40:22;4.80;70.20
77277;DHT22;66330;52.166;9.978;2023-01-24T10:42:48;4.80;70.20
77277;DHT22;66330;52.166;9.978;2023-01-24T10:45:24;4.80;70.10
77277;DHT22;66330;52.166;9.978;2023-01-24T10:48:01;4.80;70.00
77277;DHT22;66330;52.166;9.978;2023-01-24T10:50:40;4.90;70.10
77277;DHT22;66330;52.166;9.978;2023-01-24T10:53:26;4.70;69.90
77277;DHT22;66330;52.166;9.978;2023-01-24T10:56:03;5.20;70.40
77277;DHT22;66330;52.166;9.978;2023-01-24T10:58:32;5.00;70.30
77277;DHT22;66330;52.166;9.978;2023-01-24T11:01:05;4.70;70.10
77277;DHT22;66330;52.166;9.978;2023-01-24T11:03:32;4.80;70.30
77277;DHT22;66330;52.166;9.978;2023-01-24T11:06:01;4.70;70.10
77277;DHT22;66330;52.166;9.978;2023-01-24T11:08:33;4.80;70.10
77277;DHT22;66330;52.166;9.978;2023-01-24T11:11:00;4.70;70.00
77277;DHT22;66330;52.166;9.978;2023-01-24T11:13:31;4.80;70.10
77277;DHT22;66330;52.166;9.978;2023-01-24T11:16:06;5.10;70.40
77277;DHT22;66330;52.166;9.978;2023-01-24T11:18:57;4.60;69.80
77277;DHT22;66330;52.166;9.978;2023-01-24T11:21:23;4.80;70.00
77277;DHT22;66330;52.166;9.978;2023-01-24T11:24:12;4.80;69.90
77277;DHT22;66330;52.166;9.978;2023-01-24T11:29:19;4.80;70.00
77277;DHT22;66330;52.166;9.978;2023-01-24T11:31:50;5.00;70.00
77277;DHT22;66330;52.166;9.978;2023-01-24T11:42:38;4.80;69.90
77277;DHT22;66330;52.166;9.978;2023-01-24T11:48:00;4.80;69.90
77277;DHT22;66330;52.166;9.978;2023-01-24T11:50:35;4.80;69.80
77277;DHT22;66330;52.166;9.978;2023-01-24T11:53:13;4.70;69.60
77277;DHT22;66330;52.166;9.978;2023-01-24T12:02:29;4.80;69.80
77277;DHT22;66330;52.166;9.978;2023-01-24T12:05:02;4.60;69.60
77277;DHT22;66330;52.166;9.978;2023-01-24T12:08:14;4.70;69.80
77277;DHT22;66330;52.166;9.978;2023-01-24T12:11:12;4.80;69.90
77277;DHT22;66330;52.166;9.978;2023-01-24T12:22:05;4.80;69.80
77277;DHT22;66330;52.166;9.978;2023-01-24T12:24:37;4.80;69.80
77277;DHT22;66330;52.166;9.978;2023-01-24T12:27:11;4.80;69.80
77277;DHT22;66330;52.166;9.978;2023-01-24T12:29:44;5.20;70.10
77277;DHT22;66330;52.166;9.978;2023-01-24T12:32:35;4.70;69.60
77277;DHT22;66330;52.166;9.978;2023-01-24T12:42:37;4.70;69.30
77277;DHT22;66330;52.166;9.978;2023-01-24T12:45:14;4.80;69.40
77277;DHT22;66330;52.166;9.978;2023-01-24T12:47:50;4.70;69.10
77277;DHT22;66330;52.166;9.978;2023-01-24T12:53:41;4.60;68.70
77277;DHT22;66330;52.166;9.978;2023-01-24T12:59:11;5.10;69.30
77277;DHT22;66330;52.166;9.978;2023-01-24T13:01:42;4.50;68.70
77277;DHT22;66330;52.166;9.978;2023-01-24T13:10:05;4.50;68.90
77277;DHT22;66330;52.166;9.978;2023-01-24T13:12:34;4.60;69.10
77277;DHT22;66330;52.166;9.978;2023-01-24T13:15:03;4.50;69.00
77277;DHT22;66330;52.166;9.978;2023-01-24T13:20:22;4.40;69.10
77277;DHT22;66330;52.166;9.978;2023-01-24T13:33:02;4.40;69.00
77277;DHT22;66330;52.166;9.978;2023-01-24T13:35:29;4.40;69.00
77277;DHT22;66330;52.166;9.978;2023-01-24T13:38:56;4.40;68.90
77277;DHT22;66330;52.166;9.978;2023-01-24T13:41:05;4.40;68.90
77277;DHT22;66330;52.166;9.978;2023-01-24T13:46:57;4.80;69.40
77277;DHT22;66330;52.166;9.978;2023-01-24T13:54:59;4.30;69.00
77277;DHT22;66330;52.166;9.978;2023-01-24T13:57:29;4.30;69.10
77277;DHT22;66330;52.166;9.978;2023-01-24T14:10:45;4.20;69.10
77277;DHT22;66330;52.166;9.978;2023-01-24T14:21:44;4.00;69.30
77277;DHT22;66330;52.166;9.978;2023-01-24T14:27:37;4.20;69.50
77277;DHT22;66330;52.166;9.978;2023-01-24T14:32:57;3.90;69.10
77277;DHT22;66330;52.166;9.978;2023-01-24T14:35:27;4.10;69.40
77277;DHT22;66330;52.166;9.978;2023-01-24T14:37:53;3.80;69.20
77277;DHT22;66330;52.166;9.978;2023-01-24T14:40:35;4.20;69.90
77277;DHT22;66330;52.166;9.978;2023-01-24T14:43:04;3.80;69.60
77277;DHT22;66330;52.166;9.978;2023-01-24T14:45:33;4.30;70.20
77277;DHT22;66330;52.166;9.978;2023-01-24T14:48:01;3.80;69.70
77277;DHT22;66330;52.166;9.978;2023-01-24T14:50:33;3.80;69.70
77277;DHT22;66330;52.166;9.978;2023-01-24T14:53:00;3.70;69.60
77277;DHT22;66330;52.166;9.978;2023-01-24T14:57:52;3.70;69.90
77277;DHT22;66330;52.166;9.978;2023-01-24T15:00:18;3.90;70.10
77277;DHT22;66330;52.166;9.978;2023-01-24T15:02:59;3.70;70.00
77277;DHT22;66330;52.166;9.978;2023-01-24T15:05:29;3.80;70.10
77277;DHT22;66330;52.166;9.978;2023-01-24T15:07:55;3.70;70.00
77277;DHT22;66330;52.166;9.978;2023-01-24T15:10:26;3.70;70.00
77277;DHT22;66330;52.166;9.978;2023-01-24T15:12:54;4.00;70.40
77277;DHT22;66330;52.166;9.978;2023-01-24T15:15:21;3.70;70.10
77277;DHT22;66330;52.166;9.978;2023-01-24T15:17:48;3.70;70.20
77277;DHT22;66330;52.166;9.978;2023-01-24T15:20:17;3.70;70.20
77277;DHT22;66330;52.166;9.978;2023-01-24T15:22:49;3.70;70.10
77277;DHT22;66330;52.166;9.978;2023-01-24T15:25:28;3.90;70.30
77277;DHT22;66330;52.166;9.978;2023-01-24T15:27:55;3.90;70.40
77277;DHT22;66330;52.166;9.978;2023-01-24T15:30:23;3.90;70.40
77277;DHT22;66330;52.166;9.978;2023-01-24T15:35:46;3.70;70.30
77277;DHT22;66330;52.166;9.978;2023-01-24T15:38:20;3.90;70.30
77277;DHT22;66330;52.166;9.978;2023-01-24T15:43:36;3.90;70.10
77277;DHT22;66330;52.166;9.978;2023-01-24T15:49:32;3.80;70.30
77277;DHT22;66330;52.166;9.978;2023-01-24T15:54:34;3.50;70.00
77277;DHT22;66330;52.166;9.978;2023-01-24T15:57:03;3.40;69.80
77277;DHT22;66330;52.166;9.978;2023-01-24T15:59:29;3.70;70.30
77277;DHT22;66330;52.166;9.978;2023-01-24T16:01:55;3.40;70.10
77277;DHT22;66330;52.166;9.978;2023-01-24T16:04:22;3.40;70.10
77277;DHT22;66330;52.166;9.978;2023-01-24T16:06:49;3.40;70.10
77277;DHT22;66330;52.166;9.978;2023-01-24T16:09:15;3.70;70.40
77277;DHT22;66330;52.166;9.978;2023-01-24T16:11:43;3.40;70.00
77277;DHT22;66330;52.166;9.978;2023-01-24T16:14:22;3.40;70.00
77277;DHT22;66330;52.166;9.978;2023-01-24T16:16:52;3.40;70.00
77277;DHT22;66330;52.166;9.978;2023-01-24T16:19:20;3.70;71.10
77277;DHT22;66330;52.166;9.978;2023-01-24T16:21:47;3.40;70.00
77277;DHT22;66330;52.166;9.978;2023-01-24T16:24:13;3.60;70.20
77277;DHT22;66330;52.166;9.978;2023-01-24T16:26:43;3.50;70.10
77277;DHT22;66330;52.166;9.978;2023-01-24T16:29:19;3.30;70.00
77277;DHT22;66330;52.166;9.978;2023-01-24T16:31:45;3.30;70.10
77277;DHT22;66330;52.166;9.978;2023-01-24T16:34:11;3.40;70.10
77277;DHT22;66330;52.166;9.978;2023-01-24T16:36:37;3.50;70.30
77277;DHT22;66330;52.166;9.978;2023-01-24T16:39:04;3.30;70.00
77277;DHT22;66330;52.166;9.978;2023-01-24T16:41:30;3.30;70.00
77277;DHT22;66330;52.166;9.978;2023-01-24T16:43:56;3.40;70.20
77277;DHT22;66330;52.166;9.978;2023-01-24T16:46:21;3.50;70.40
77277;DHT22;66330;52.166;9.978;2023-01-24T16:48:48;3.50;70.50
77277;DHT22;66330;52.166;9.978;2023-01-24T16:51:15;3.40;70.40
77277;DHT22;66330;52.166;9.978;2023-01-24T16:53:41;3.60;70.60
77277;DHT22;66330;52.166;9.978;2023-01-24T16:56:07;3.60;70.50
77277;DHT22;66330;52.166;9.978;2023-01-24T16:58:33;3.50;70.50
77277;DHT22;66330;52.166;9.978;2023-01-24T17:01:01;3.20;70.20
77277;DHT22;66330;52.166;9.978;2023-01-24T17:03:30;3.20;70.00
77277;DHT22;66330;52.166;9.978;2023-01-24T17:05:56;3.00;69.70
77277;DHT22;66330;52.166;9.978;2023-01-24T17:08:21;3.20;70.00
77277;DHT22;66330;52.166;9.978;2023-01-24T17:10:47;3.10;69.80
77277;DHT22;66330;52.166;9.978;2023-01-24T17:13:12;3.10;69.80
77277;DHT22;66330;52.166;9.978;2023-01-24T17:15:38;2.90;69.60
77277;DHT22;66330;52.166;9.978;2023-01-24T17:18:05;3.30;70.10
77277;DHT22;66330;52.166;9.978;2023-01-24T17:20:32;3.00;69.80
77277;DHT22;66330;52.166;9.978;2023-01-24T17:22:58;3.00;70.70
77277;DHT22;66330;52.166;9.978;2023-01-24T17:25:30;3.00;70.00
77277;DHT22;66330;52.166;9.978;2023-01-24T17:27:56;3.00;70.10
77277;DHT22;66330;52.166;9.978;2023-01-24T17:30:22;3.00;70.10
77277;DHT22;66330;52.166;9.978;2023-01-24T17:32:48;3.00;70.10
77277;DHT22;66330;52.166;9.978;2023-01-24T17:35:14;2.90;70.00
77277;DHT22;66330;52.166;9.978;2023-01-24T17:37:40;3.00;70.00
77277;DHT22;66330;52.166;9.978;2023-01-24T17:40:06;2.90;69.80
77277;DHT22;66330;52.166;9.978;2023-01-24T17:42:34;3.10;70.00
77277;DHT22;66330;52.166;9.978;2023-01-24T17:44:59;2.90;69.80
77277;DHT22;66330;52.166;9.978;2023-01-24T17:47:27;3.10;70.00
77277;DHT22;66330;52.166;9.978;2023-01-24T17:49:53;2.80;69.60
77277;DHT22;66330;52.166;9.978;2023-01-24T17:52:19;2.80;69.60
77277;DHT22;66330;52.166;9.978;2023-01-24T17:54:44;2.80;69.70
77277;DHT22;66330;52.166;9.978;2023-01-24T17:57:10;2.80;69.80
77277;DHT22;66330;52.166;9.978;2023-01-24T17:59:36;2.80;69.80
77277;DHT22;66330;52.166;9.978;2023-01-24T18:02:01;2.80;69.80
77277;DHT22;66330;52.166;9.978;2023-01-24T18:04:27;2.80;69.90
77277;DHT22;66330;52.166;9.978;2023-01-24T18:06:53;2.80;70.00
77277;DHT22;66330;52.166;9.978;2023-01-24T18:09:18;2.80;70.00
77277;DHT22;66330;52.166;9.978;2023-01-24T18:11:45;3.00;70.20